createdAt,value
2022-08-12T00:07:53.631Z,18.99
2022-08-12T00:18:13.545Z,19.04
2022-08-12T00:28:33.452Z,18.99
2022-08-12T00:38:53.749Z,18.56
2022-08-12T00:48:55.084Z,18.58
2022-08-12T00:58:56.430Z,18.30
2022-08-12T01:09:16.587Z,18.27
2022-08-12T01:19:17.839Z,18.41
2022-08-12T01:29:23.515Z,18.45
2022-08-12T01:39:25.975Z,18.53
2022-08-12T01:49:27.302Z,18.58
2022-08-12T01:59:47.423Z,18.55
2022-08-12T02:10:07.713Z,18.46
2022-08-12T02:20:09.075Z,18.39
2022-08-12T02:30:10.422Z,18.30
2022-08-12T02:40:12.240Z,18.14
2022-08-12T02:50:13.676Z,17.78
2022-08-12T03:00:18.944Z,17.31
2022-08-12T03:10:25.152Z,17.12
2022-08-12T03:20:40.349Z,16.86
2022-08-12T03:30:43.226Z,16.89
2022-08-12T03:41:03.496Z,16.58
2022-08-12T03:51:23.545Z,16.62
2022-08-12T04:01:27.985Z,16.86
2022-08-12T04:11:48.072Z,16.90
2022-08-12T04:22:02.783Z,17.18
2022-08-12T04:32:06.714Z,17.43
2022-08-12T04:42:07.949Z,17.33
2022-08-12T04:52:09.296Z,17.14
2022-08-12T05:02:16.967Z,17.23
2022-08-12T05:12:23.505Z,17.35
2022-08-12T05:22:24.850Z,17.63
2022-08-12T05:32:26.200Z,17.99
2022-08-12T05:42:34.488Z,18.27
2022-08-12T05:52:36.143Z,18.58
2022-08-12T06:02:37.491Z,18.82
2022-08-12T06:12:38.981Z,19.14
2022-08-12T06:22:40.549Z,19.38
2022-08-12T06:32:51.669Z,19.80
2022-08-12T06:43:03.292Z,20.31
2022-08-12T06:53:05.905Z,20.64
2022-08-12T07:03:22.830Z,20.78
2022-08-12T07:13:25.173Z,21.01
2022-08-12T07:23:26.509Z,21.45
2022-08-12T07:33:31.177Z,21.69
2022-08-12T07:43:32.880Z,21.96
2022-08-12T07:53:35.096Z,22.23
2022-08-12T08:04:08.593Z,22.50
2022-08-12T08:14:10.671Z,22.72
2022-08-12T08:24:15.169Z,23.12
2022-08-12T08:34:33.722Z,23.60
2022-08-12T08:44:39.489Z,24.06
2022-08-12T08:54:40.860Z,24.41
2022-08-12T09:05:13.408Z,24.95
2022-08-12T09:15:16.575Z,25.48
2022-08-12T09:25:26.092Z,25.77
2022-08-12T09:35:28.500Z,26.01
2022-08-12T09:46:11.357Z,26.46
2022-08-12T09:56:06.744Z,26.73
2022-08-12T10:06:27.639Z,27.07
2022-08-12T10:16:39.184Z,27.33
2022-08-12T10:26:59.465Z,27.45
2022-08-12T10:37:22.962Z,27.52
2022-08-12T10:48:07.597Z,27.63
2022-08-12T10:58:14.363Z,27.84
2022-08-12T11:08:36.414Z,27.81
2022-08-12T11:18:34.028Z,28.23
2022-08-12T11:28:38.254Z,27.93
2022-08-12T11:38:39.888Z,28.19
2022-08-12T11:48:52.409Z,28.19
2022-08-12T12:01:57.818Z,28.40
2022-08-12T12:09:18.185Z,28.20
2022-08-12T12:30:17.770Z,28.47
2022-08-12T12:40:03.767Z,28.40
2022-08-12T12:50:07.446Z,28.40
2022-08-12T13:00:15.154Z,28.74
2022-08-12T13:10:16.563Z,29.14
2022-08-12T13:20:38.172Z,28.89
2022-08-12T13:30:39.180Z,29.05
2022-08-12T13:40:50.438Z,29.10
2022-08-12T13:50:52.911Z,29.11
2022-08-12T14:00:55.746Z,29.34
2022-08-12T14:10:57.286Z,29.23
2022-08-12T14:21:00.759Z,29.47
2022-08-12T14:31:05.576Z,29.25
2022-08-12T14:41:19.884Z,29.56
2022-08-12T14:52:44.211Z,29.61
2022-08-12T15:01:45.737Z,29.58
2022-08-12T15:11:55.326Z,29.43
2022-08-12T15:22:37.300Z,29.51
2022-08-12T15:32:20.303Z,29.46
2022-08-12T15:42:34.246Z,29.60
2022-08-12T15:52:36.212Z,29.68
2022-08-12T16:02:37.552Z,29.73
2022-08-12T16:12:39.653Z,29.67
2022-08-12T16:22:40.982Z,29.66
2022-08-12T16:32:53.785Z,29.63
2022-08-12T16:43:02.303Z,29.67
2022-08-12T16:53:06.279Z,29.62
2022-08-12T17:03:10.508Z,29.54
2022-08-12T17:13:11.769Z,29.39
2022-08-12T17:23:15.171Z,29.16
2022-08-12T17:33:24.830Z,28.83
2022-08-12T17:43:57.664Z,28.65
2022-08-12T17:54:11.086Z,28.38
2022-08-12T18:04:22.913Z,28.21
2022-08-12T18:14:30.827Z,27.74
2022-08-12T18:24:32.185Z,27.25
2022-08-12T18:34:34.299Z,26.88
2022-08-12T18:44:36.023Z,26.37
2022-08-12T18:54:41.292Z,26.03
2022-08-12T19:04:52.866Z,25.69
2022-08-12T19:15:04.113Z,25.42
2022-08-12T19:26:00.754Z,25.15
2022-08-12T19:36:08.085Z,24.98
2022-08-12T19:46:07.758Z,24.65
2022-08-12T19:56:12.161Z,24.37
2022-08-12T20:06:18.237Z,24.11
2022-08-12T20:16:47.452Z,23.86
2022-08-12T20:26:44.766Z,23.16
2022-08-12T20:36:47.661Z,22.63
2022-08-12T20:47:11.766Z,22.38
2022-08-12T20:57:21.571Z,22.60
2022-08-12T21:07:23.673Z,22.53
2022-08-12T21:18:00.407Z,22.34
2022-08-12T21:27:59.085Z,22.13
2022-08-12T21:38:02.531Z,21.93
2022-08-12T21:48:06.038Z,21.70
2022-08-12T21:58:10.494Z,21.51
2022-08-12T22:08:12.122Z,21.37
2022-08-12T22:18:16.094Z,20.71
2022-08-12T22:28:38.996Z,20.60
2022-08-12T22:38:40.574Z,20.33
2022-08-12T22:48:50.352Z,20.25
2022-08-12T22:59:02.511Z,20.03
2022-08-12T23:09:04.231Z,19.81
2022-08-12T23:19:10.638Z,19.80
2022-08-12T23:29:29.785Z,19.76
2022-08-12T23:40:14.560Z,19.59
2022-08-12T23:50:13.169Z,19.23
